Time;durP1;ratioP1;P1;durP2;ratioP2;P2;SDS_P1;SDS_P2;PMS_P1;PMS_P2;Temp;Humidity;BMP_temperature;BMP_pressure;BME280_temperature;BME280_humidity;BME280_pressure;Samples;Min_cycle;Max_cycle;Signal;HPM_P1;HPM_P2
2022/11/06 00:00:14;;;;;;;;;;;;;;;;;;5076549;28;1286;-80
2022/11/06 00:02:41;;;;;;;;;;;;;;;;;;5058069;28;1112;-81
2022/11/06 00:07:52;;;;;;;;;;;;;;;;;;5057705;28;1234;-79
2022/11/06 00:10:19;;;;;;;;;;;;;;;;;;5057301;28;1886;-81
2022/11/06 00:12:45;;;;;;;;;;;;;;;;;;5057411;28;1517;-77
2022/11/06 00:15:12;;;;;;;;;;;;;;;;;;5058952;28;1194;-81
2022/11/06 00:17:38;;;;;;;;;;;;;;;;;;5058548;28;1302;-80
2022/11/06 00:20:05;;;;;;;;;;;;;;;;;;5057884;28;1408;-80
2022/11/06 00:22:32;;;;;;;;;;;;;;;;;;5066760;28;1130;-80
2022/11/06 00:25:00;;;;;;;;;;;;;;;;;;5037505;28;1093;-81
2022/11/06 00:27:26;;;;;;;;;;;;;;;;;;5056188;28;1107;-81
2022/11/06 00:29:52;;;;;;;;;;;;;;;;;;5037404;28;1124;-81
2022/11/06 00:32:18;;;;;;;;;;;;;;;;;;5036647;28;1979;-81
2022/11/06 00:34:45;;;;;;;;;;;;;;;;;;5037300;28;1117;-80
2022/11/06 00:37:11;;;;;;;;;;;;;;;;;;5055571;28;1379;-80
2022/11/06 00:39:37;;;;;;;;;;;;;;;;;;5038039;28;1267;-81
2022/11/06 00:42:05;;;;;;;;;;;;;;;;;;5054866;28;1361;-80
2022/11/06 00:44:32;;;;;;;;;;;;;;;;;;5055576;28;1123;-80
2022/11/06 00:46:58;;;;;;;;;;;;;;;;;;5057561;28;1475;-81
2022/11/06 00:49:24;;;;;;;;;;;;;;;;;;5075180;28;1507;-81
2022/11/06 00:51:51;;;;;;;;;;;;;;;;;;5074724;28;1887;-81
2022/11/06 00:54:18;;;;;;;;;;;;;;;;;;5075498;28;1103;-80
2022/11/06 00:56:44;;;;;;;;;;;;;;;;;;5077477;28;767;-79
2022/11/06 00:59:12;;;;;;;;;;;;;;;;;;5059645;28;1307;-80
2022/11/06 01:01:40;;;;;;;;;;;;;;;;;;5056994;28;1411;-80
2022/11/06 01:04:07;;;;;;;;;;;;;;;;;;5057510;28;1170;-80
2022/11/06 01:06:34;;;;;;;;;;;;;;;;;;5056971;28;1200;-79
2022/11/06 01:09:01;;;;;;;;;;;;;;;;;;5077634;28;1075;-81
2022/11/06 01:11:27;;;;;;;;;;;;;;;;;;5079165;28;1977;-80
2022/11/06 01:13:55;;;;;;;;;;;;;;;;;;5079922;28;1248;-81
2022/11/06 01:16:22;;;;;;;;;;;;;;;;;;5080320;28;993;-80
2022/11/06 01:18:49;;;;;;;;;;;;;;;;;;5062079;28;1128;-81
2022/11/06 01:21:15;;;;;;;;;;;;;;;;;;5061561;28;1384;-78
2022/11/06 01:23:42;;;;;;;;;;;;;;;;;;5079780;28;1174;-81
2022/11/06 01:26:09;;;;;;;;;;;;;;;;;;5080142;28;1055;-81
2022/11/06 01:28:36;;;;;;;;;;;;;;;;;;5082775;28;1236;-80
2022/11/06 01:31:02;;;;;;;;;;;;;;;;;;5097828;28;1954;-80
2022/11/06 01:33:30;;;;;;;;;;;;;;;;;;5089240;28;2033;-80
2022/11/06 01:35:56;;;;;;;;;;;;;;;;;;5076134;28;1535;-81
2022/11/06 01:38:22;;;;;;;;;;;;;;;;;;5059889;28;1056;-81
2022/11/06 01:40:49;;;;;;;;;;;;;;;;;;5059719;28;1313;-81
2022/11/06 01:43:16;;;;;;;;;;;;;;;;;;5059052;28;968;-81
2022/11/06 01:45:42;;;;;;;;;;;;;;;;;;5058455;28;1320;-81
2022/11/06 01:48:08;;;;;;;;;;;;;;;;;;5059226;28;901;-81
2022/11/06 01:50:36;;;;;;;;;;;;;;;;;;5059417;28;1352;-81
2022/11/06 01:53:02;;;;;;;;;;;;;;;;;;5074238;28;1918;-81
2022/11/06 01:55:29;;;;;;;;;;;;;;;;;;5059506;28;747;-81
2022/11/06 01:57:56;;;;;;;;;;;;;;;;;;5059715;28;1067;-81
2022/11/06 02:00:22;;;;;;;;;;;;;;;;;;5059238;28;1323;-81
2022/11/06 02:02:48;;;;;;;;;;;;;;;;;;5073344;28;1130;-81
2022/11/06 02:05:15;;;;;;;;;;;;;;;;;;5058824;28;1036;-81
2022/11/06 02:07:42;;;;;;;;;;;;;;;;;;5057218;28;1201;-80
2022/11/06 02:10:09;;;;;;;;;;;;;;;;;;5058472;28;1329;-81
2022/11/06 02:12:38;;;;;;;;;;;;;;;;;;5056396;28;1918;-81
2022/11/06 02:15:06;;;;;;;;;;;;;;;;;;5074838;28;1218;-81
2022/11/06 02:17:36;;;;;;;;;;;;;;;;;;5059456;28;1138;-81
2022/11/06 02:20:04;;;;;;;;;;;;;;;;;;5056607;28;1346;-80
2022/11/06 02:22:35;;;;;;;;;;;;;;;;;;5065801;28;1155;-81
2022/11/06 02:25:06;;;;;;;;;;;;;;;;;;5078018;28;1160;-81
2022/11/06 02:27:40;;;;;;;;;;;;;;;;;;5079561;28;1067;-81
2022/11/06 02:30:07;;;;;;;;;;;;;;;;;;5084490;28;1317;-80
2022/11/06 02:32:35;;;;;;;;;;;;;;;;;;5088588;28;1973;-81
2022/11/06 02:35:02;;;;;;;;;;;;;;;;;;5094135;28;1077;-81
2022/11/06 02:37:29;;;;;;;;;;;;;;;;;;5087380;28;1291;-81
2022/11/06 02:39:57;;;;;;;;;;;;;;;;;;5078365;28;1233;-81
2022/11/06 02:42:23;;;;;;;;;;;;;;;;;;5078171;28;1526;-81
2022/11/06 02:44:51;;;;;;;;;;;;;;;;;;5078086;28;1131;-81
2022/11/06 02:47:17;;;;;;;;;;;;;;;;;;5076156;28;1171;-81
2022/11/06 02:49:44;;;;;;;;;;;;;;;;;;5059268;28;1123;-81
2022/11/06 02:52:11;;;;;;;;;;;;;;;;;;5075547;28;1953;-81
2022/11/06 02:54:38;;;;;;;;;;;;;;;;;;5077218;28;1064;-81
2022/11/06 02:57:05;;;;;;;;;;;;;;;;;;5076729;28;1127;-81
2022/11/06 02:59:32;;;;;;;;;;;;;;;;;;5077066;28;960;-81
2022/11/06 03:02:00;;;;;;;;;;;;;;;;;;5058633;28;1374;-81
2022/11/06 03:04:28;;;;;;;;;;;;;;;;;;5058922;28;1080;-80
2022/11/06 03:06:56;;;;;;;;;;;;;;;;;;5077438;28;823;-81
2022/11/06 03:09:24;;;;;;;;;;;;;;;;;;5077103;28;1052;-81
2022/11/06 03:11:51;;;;;;;;;;;;;;;;;;5058745;28;1981;-81
2022/11/06 03:14:18;;;;;;;;;;;;;;;;;;5077898;28;976;-81
2022/11/06 03:16:47;;;;;;;;;;;;;;;;;;5077919;28;1114;-81
2022/11/06 03:19:17;;;;;;;;;;;;;;;;;;5059580;28;1179;-81
2022/11/06 03:21:45;;;;;;;;;;;;;;;;;;5076440;28;1277;-81
2022/11/06 03:24:13;;;;;;;;;;;;;;;;;;5077834;28;1111;-81
2022/11/06 03:26:40;;;;;;;;;;;;;;;;;;5077727;28;1110;-81
2022/11/06 03:29:09;;;;;;;;;;;;;;;;;;5077796;28;1071;-81
2022/11/06 03:31:36;;;;;;;;;;;;;;;;;;5075980;28;1902;-82
2022/11/06 03:34:03;;;;;;;;;;;;;;;;;;5075574;28;1170;-82
2022/11/06 03:36:32;;;;;;;;;;;;;;;;;;5058017;28;1125;-82
2022/11/06 03:38:59;;;;;;;;;;;;;;;;;;5083674;28;1179;-81
2022/11/06 03:41:26;;;;;;;;;;;;;;;;;;5094852;28;1266;-80
2022/11/06 03:43:53;;;;;;;;;;;;;;;;;;5094400;28;1016;-81
2022/11/06 03:46:23;;;;;;;;;;;;;;;;;;5081591;28;1000;-82
2022/11/06 03:48:50;;;;;;;;;;;;;;;;;;5075750;28;1063;-82
2022/11/06 03:51:17;;;;;;;;;;;;;;;;;;5058010;28;1395;-80
2022/11/06 03:53:46;;;;;;;;;;;;;;;;;;5057921;28;1976;-82
2022/11/06 03:56:13;;;;;;;;;;;;;;;;;;5058386;28;1374;-82
2022/11/06 03:58:40;;;;;;;;;;;;;;;;;;5076098;28;1083;-82
2022/11/06 04:01:07;;;;;;;;;;;;;;;;;;5058557;28;1302;-82
2022/11/06 04:03:34;;;;;;;;;;;;;;;;;;5057513;28;1160;-82
2022/11/06 04:06:02;;;;;;;;;;;;;;;;;;5076421;28;1119;-82
2022/11/06 04:14:01;;;;;;;;;;;;;;;;;;5076861;28;925;-82
2022/11/06 04:16:28;;;;;;;;;;;;;;;;;;5076408;28;945;-82
2022/11/06 04:18:54;;;;;;;;;;;;;;;;;;5076750;28;779;-82
2022/11/06 04:21:24;;;;;;;;;;;;;;;;;;5058430;28;1377;-79
2022/11/06 04:26:36;;;;;;;;;;;;;;;;;;5057864;28;1219;-82
2022/11/06 04:29:04;;;;;;;;;;;;;;;;;;5076217;28;763;-81
2022/11/06 04:31:31;;;;;;;;;;;;;;;;;;5075467;28;1355;-82
2022/11/06 04:33:58;;;;;;;;;;;;;;;;;;5058295;28;1918;-81
2022/11/06 04:36:27;;;;;;;;;;;;;;;;;;5057889;28;1151;-82
2022/11/06 04:38:54;;;;;;;;;;;;;;;;;;5058853;28;1305;-82
2022/11/06 04:41:21;;;;;;;;;;;;;;;;;;5057470;28;1417;-82
2022/11/06 04:43:49;;;;;;;;;;;;;;;;;;5058366;28;1189;-82
2022/11/06 04:46:17;;;;;;;;;;;;;;;;;;5087424;22;3726;-74
2022/11/06 04:48:43;;;;;;;;;;;;;;;;;;5072115;28;1057;-75
2022/11/06 04:51:10;;;;;;;;;;;;;;;;;;5072155;28;1408;-74
2022/11/06 04:53:36;;;;;;;;;;;;;;;;;;5070481;28;1963;-74
2022/11/06 04:56:06;;;;;;;;;;;;;;;;;;5072382;28;1284;-74
2022/11/06 04:58:33;;;;;;;;;;;;;;;;;;5054241;28;1093;-74
2022/11/06 05:01:00;;;;;;;;;;;;;;;;;;5072326;28;879;-74
2022/11/06 05:03:26;;;;;;;;;;;;;;;;;;5071780;28;1114;-74
2022/11/06 05:05:52;;;;;;;;;;;;;;;;;;5072181;28;1349;-74
2022/11/06 05:08:19;;;;;;;;;;;;;;;;;;5072327;28;1070;-74
2022/11/06 05:10:46;;;;;;;;;;;;;;;;;;5072309;28;755;-74
2022/11/06 05:13:12;;;;;;;;;;;;;;;;;;5071514;28;1910;-74
2022/11/06 05:15:39;;;;;;;;;;;;;;;;;;5072173;28;1373;-74
2022/11/06 05:18:06;;;;;;;;;;;;;;;;;;5072202;28;1067;-74
2022/11/06 05:20:33;;;;;;;;;;;;;;;;;;5072411;28;929;-74
2022/11/06 05:22:59;;;;;;;;;;;;;;;;;;5071062;28;1237;-74
2022/11/06 05:25:25;;;;;;;;;;;;;;;;;;5054281;28;1405;-74
2022/11/06 05:27:52;;;;;;;;;;;;;;;;;;5049829;28;992;-73
2022/11/06 05:30:18;;;;;;;;;;;;;;;;;;5016305;28;1107;-73
2022/11/06 05:32:45;;;;;;;;;;;;;;;;;;5003387;28;1987;-74
2022/11/06 05:35:13;;;;;;;;;;;;;;;;;;5007886;28;1289;-74
2022/11/06 05:37:39;;;;;;;;;;;;;;;;;;5019429;28;789;-74
2022/11/06 05:40:07;;;;;;;;;;;;;;;;;;5001368;28;1288;-74
2022/11/06 05:42:33;;;;;;;;;;;;;;;;;;4983346;28;933;-74
2022/11/06 05:44:59;;;;;;;;;;;;;;;;;;4990804;28;1459;-74
2022/11/06 05:47:26;;;;;;;;;;;;;;;;;;5006292;28;1309;-74
2022/11/06 05:49:52;;;;;;;;;;;;;;;;;;5013286;28;1478;-72
2022/11/06 05:52:20;;;;;;;;;;;;;;;;;;5007163;28;1914;-74
2022/11/06 05:54:46;;;;;;;;;;;;;;;;;;5006073;28;1372;-73
2022/11/06 05:57:13;;;;;;;;;;;;;;;;;;5003943;28;929;-74
2022/11/06 05:59:40;;;;;;;;;;;;;;;;;;4998680;28;1425;-73
2022/11/06 06:02:07;;;;;;;;;;;;;;;;;;5012376;28;783;-74
2022/11/06 06:04:33;;;;;;;;;;;;;;;;;;5006510;28;1294;-73
2022/11/06 06:07:00;;;;;;;;;;;;;;;;;;5009381;28;894;-74
2022/11/06 06:09:28;;;;;;;;;;;;;;;;;;4990186;28;1739;-74
2022/11/06 06:11:54;;;;;;;;;;;;;;;;;;4990655;28;909;-73
2022/11/06 06:14:21;;;;;;;;;;;;;;;;;;4987695;28;2011;-74
2022/11/06 06:16:48;;;;;;;;;;;;;;;;;;4976843;28;1416;-74
2022/11/06 06:19:14;;;;;;;;;;;;;;;;;;4995723;28;1171;-73
2022/11/06 06:21:41;;;;;;;;;;;;;;;;;;4991369;28;1249;-74
2022/11/06 06:24:08;;;;;;;;;;;;;;;;;;5006312;28;1273;-74
2022/11/06 06:26:35;;;;;;;;;;;;;;;;;;5009021;28;1219;-73
2022/11/06 06:29:02;;;;;;;;;;;;;;;;;;5008345;28;948;-73
2022/11/06 06:31:29;;;;;;;;;;;;;;;;;;5001614;28;1597;-74
2022/11/06 06:33:55;;;;;;;;;;;;;;;;;;5012994;28;1999;-73
2022/11/06 06:36:22;;;;;;;;;;;;;;;;;;5033497;28;1242;-74
2022/11/06 06:38:48;;;;;;;;;;;;;;;;;;5025485;28;1067;-74
2022/11/06 06:41:15;;;;;;;;;;;;;;;;;;5025893;28;1650;-73
2022/11/06 06:43:43;;;;;;;;;;;;;;;;;;5000628;28;1650;-73
2022/11/06 06:46:09;;;;;;;;;;;;;;;;;;4994071;28;1295;-74
2022/11/06 06:48:36;;;;;;;;;;;;;;;;;;5062878;28;1407;-74
2022/11/06 06:51:02;;;;;;;;;;;;;;;;;;5069846;28;1407;-73
2022/11/06 06:53:29;;;;;;;;;;;;;;;;;;5076414;28;1910;-73
2022/11/06 06:55:55;;;;;;;;;;;;;;;;;;5077145;28;1467;-74
2022/11/06 06:58:21;;;;;;;;;;;;;;;;;;5052479;28;1196;-71
2022/11/06 07:00:48;;;;;;;;;;;;;;;;;;5072573;28;1942;-73
2022/11/06 07:03:15;;;;;;;;;;;;;;;;;;5053714;28;1351;-74
2022/11/06 07:05:41;;;;;;;;;;;;;;;;;;5070790;28;1447;-73
2022/11/06 07:08:07;;;;;;;;;;;;;;;;;;5060609;28;1607;-75
2022/11/06 07:10:33;;;;;;;;;;;;;;;;;;5066866;28;1138;-74
2022/11/06 07:13:00;;;;;;;;;;;;;;;;;;5033520;28;1973;-73
2022/11/06 07:15:26;;;;;;;;;;;;;;;;;;5052282;28;1388;-74
2022/11/06 07:17:54;;;;;;;;;;;;;;;;;;5052122;28;1103;-72
2022/11/06 07:20:20;;;;;;;;;;;;;;;;;;5052681;28;897;-74
2022/11/06 07:22:46;;;;;;;;;;;;;;;;;;5052600;28;1072;-73
2022/11/06 07:25:12;;;;;;;;;;;;;;;;;;5054000;28;1472;-74
2022/11/06 07:27:40;;;;;;;;;;;;;;;;;;5053838;28;1043;-74
2022/11/06 07:30:06;;;;;;;;;;;;;;;;;;5053611;28;902;-73
2022/11/06 07:32:33;;;;;;;;;;;;;;;;;;5034992;28;1906;-73
2022/11/06 07:35:00;;;;;;;;;;;;;;;;;;5053361;28;1393;-75
2022/11/06 07:37:26;;;;;;;;;;;;;;;;;;5053724;28;1108;-73
2022/11/06 07:39:52;;;;;;;;;;;;;;;;;;5053353;28;857;-74
2022/11/06 07:42:19;;;;;;;;;;;;;;;;;;5052965;28;1166;-74
2022/11/06 07:44:56;;;;;;;;;;;;;;;;;;5053071;28;1284;-73
2022/11/06 07:47:23;;;;;;;;;;;;;;;;;;5053571;28;894;-71
2022/11/06 07:49:49;;;;;;;;;;;;;;;;;;5053068;28;1067;-74
2022/11/06 07:52:16;;;;;;;;;;;;;;;;;;5052653;28;906;-74
2022/11/06 07:54:42;;;;;;;;;;;;;;;;;;5053096;28;1910;-74
2022/11/06 07:57:09;;;;;;;;;;;;;;;;;;5053342;28;819;-73
2022/11/06 07:59:35;;;;;;;;;;;;;;;;;;5035075;28;1237;-73
2022/11/06 08:02:01;;;;;;;;;;;;;;;;;;5034789;28;1109;-74
2022/11/06 08:04:27;;;;;;;;;;;;;;;;;;5053098;28;1355;-71
2022/11/06 08:06:54;;;;;;;;;;;;;;;;;;5052989;28;1072;-74
2022/11/06 08:09:23;;;;;;;;;;;;;;;;;;5052847;28;913;-73
2022/11/06 08:11:50;;;;;;;;;;;;;;;;;;5052175;28;1060;-76
2022/11/06 08:14:16;;;;;;;;;;;;;;;;;;5052967;28;1971;-75
2022/11/06 08:16:42;;;;;;;;;;;;;;;;;;5052889;28;1262;-75
2022/11/06 08:19:08;;;;;;;;;;;;;;;;;;5051926;28;981;-76
2022/11/06 08:21:34;;;;;;;;;;;;;;;;;;5052276;28;1068;-75
2022/11/06 08:24:00;;;;;;;;;;;;;;;;;;5054663;28;1277;-76
2022/11/06 08:26:28;;;;;;;;;;;;;;;;;;5072969;28;1430;-75
2022/11/06 08:28:55;;;;;;;;;;;;;;;;;;5072602;28;896;-73
2022/11/06 08:31:21;;;;;;;;;;;;;;;;;;5072301;28;1059;-73
2022/11/06 08:33:48;;;;;;;;;;;;;;;;;;5071238;28;1985;-74
2022/11/06 08:36:14;;;;;;;;;;;;;;;;;;5054819;28;1255;-74
2022/11/06 08:38:40;;;;;;;;;;;;;;;;;;5072551;28;847;-74
2022/11/06 08:41:07;;;;;;;;;;;;;;;;;;5054646;28;1204;-73
2022/11/06 08:43:34;;;;;;;;;;;;;;;;;;5072146;28;1110;-74
2022/11/06 08:46:01;;;;;;;;;;;;;;;;;;5070940;28;1487;-76
2022/11/06 08:48:27;;;;;;;;;;;;;;;;;;5067352;28;1444;-74
2022/11/06 08:50:53;;;;;;;;;;;;;;;;;;5054565;28;1103;-74
2022/11/06 08:53:19;;;;;;;;;;;;;;;;;;5073415;28;1965;-74
2022/11/06 08:55:46;;;;;;;;;;;;;;;;;;5054470;28;1581;-74
2022/11/06 08:58:12;;;;;;;;;;;;;;;;;;5061888;28;1153;-74
2022/11/06 09:00:40;;;;;;;;;;;;;;;;;;5072533;28;1000;-74
2022/11/06 09:03:07;;;;;;;;;;;;;;;;;;5073846;28;1035;-74
2022/11/06 09:05:35;;;;;;;;;;;;;;;;;;5077033;28;1359;-74
2022/11/06 09:08:01;;;;;;;;;;;;;;;;;;5074622;28;1055;-75
2022/11/06 09:10:27;;;;;;;;;;;;;;;;;;5072653;28;870;-75
2022/11/06 09:12:54;;;;;;;;;;;;;;;;;;5071473;28;964;-73
2022/11/06 09:15:20;;;;;;;;;;;;;;;;;;5071242;28;2009;-73
2022/11/06 09:17:48;;;;;;;;;;;;;;;;;;5071609;28;1090;-75
2022/11/06 09:20:15;;;;;;;;;;;;;;;;;;5052849;28;1169;-73
2022/11/06 09:22:41;;;;;;;;;;;;;;;;;;5051368;28;886;-74
2022/11/06 09:25:08;;;;;;;;;;;;;;;;;;5052092;28;1300;-74
2022/11/06 09:27:40;;;;;;;;;;;;;;;;;;5051868;28;1090;-74
2022/11/06 09:30:07;;;;;;;;;;;;;;;;;;5034537;28;1108;-74
2022/11/06 09:32:34;;;;;;;;;;;;;;;;;;5037522;28;1121;-73
2022/11/06 09:35:01;;;;;;;;;;;;;;;;;;5071522;28;1980;-74
2022/11/06 09:37:27;;;;;;;;;;;;;;;;;;5079501;28;1455;-74
2022/11/06 09:39:54;;;;;;;;;;;;;;;;;;5076934;28;1403;-75
2022/11/06 09:42:21;;;;;;;;;;;;;;;;;;5074830;28;1431;-74
2022/11/06 09:44:51;;;;;;;;;;;;;;;;;;5079628;28;1365;-75
2022/11/06 09:47:18;;;;;;;;;;;;;;;;;;5056589;28;1517;-74
2022/11/06 09:49:45;;;;;;;;;;;;;;;;;;5080397;28;1384;-74
2022/11/06 09:52:13;;;;;;;;;;;;;;;;;;5072021;28;1505;-75
2022/11/06 09:54:40;;;;;;;;;;;;;;;;;;5072848;28;1921;-75
2022/11/06 09:57:09;;;;;;;;;;;;;;;;;;5077043;28;1861;-74
2022/11/06 09:59:36;;;;;;;;;;;;;;;;;;5065032;28;1415;-74
2022/11/06 10:02:02;;;;;;;;;;;;;;;;;;5058246;28;1949;-74
2022/11/06 10:04:30;;;;;;;;;;;;;;;;;;5074785;28;1844;-72
2022/11/06 10:06:57;;;;;;;;;;;;;;;;;;5079657;28;1586;-74
2022/11/06 10:09:24;;;;;;;;;;;;;;;;;;5075714;28;1427;-73
2022/11/06 10:11:54;;;;;;;;;;;;;;;;;;5074205;28;1434;-74
2022/11/06 10:14:23;;;;;;;;;;;;;;;;;;5056315;28;1981;-74
2022/11/06 10:16:51;;;;;;;;;;;;;;;;;;5076813;28;1446;-75
2022/11/06 10:19:19;;;;;;;;;;;;;;;;;;5068960;28;1529;-75
2022/11/06 10:21:47;;;;;;;;;;;;;;;;;;5069876;28;1400;-75
2022/11/06 10:24:15;;;;;;;;;;;;;;;;;;5071848;28;1705;-75
2022/11/06 10:26:45;;;;;;;;;;;;;;;;;;5070801;28;1576;-74
2022/11/06 10:29:15;;;;;;;;;;;;;;;;;;5055598;28;1352;-74
2022/11/06 10:31:44;;;;;;;;;;;;;;;;;;5073910;28;1505;-74
2022/11/06 10:34:12;;;;;;;;;;;;;;;;;;5073836;28;1969;-76
2022/11/06 10:36:40;;;;;;;;;;;;;;;;;;5066760;28;1999;-74
2022/11/06 10:39:10;;;;;;;;;;;;;;;;;;5071562;28;1315;-75
2022/11/06 10:41:37;;;;;;;;;;;;;;;;;;5069871;28;1541;-75
2022/11/06 10:44:06;;;;;;;;;;;;;;;;;;5072697;28;1641;-74
2022/11/06 10:46:34;;;;;;;;;;;;;;;;;;5080692;28;1719;-76
2022/11/06 10:49:00;;;;;;;;;;;;;;;;;;5057990;28;1448;-75
2022/11/06 10:51:50;;;;;;;;;;;;;;;;;;5078756;28;1601;-74
2022/11/06 10:54:26;;;;;;;;;;;;;;;;;;5039570;28;1910;-75
2022/11/06 10:56:56;;;;;;;;;;;;;;;;;;5036202;28;1152;-75
2022/11/06 10:59:24;;;;;;;;;;;;;;;;;;5063763;28;1427;-74
2022/11/06 11:01:50;;;;;;;;;;;;;;;;;;5070217;28;1614;-72
2022/11/06 11:04:16;;;;;;;;;;;;;;;;;;5074832;28;1493;-74
2022/11/06 11:06:42;;;;;;;;;;;;;;;;;;5076310;28;1609;-73
2022/11/06 11:09:32;;;;;;;;;;;;;;;;;;5076937;28;1407;-75
2022/11/06 11:11:58;;;;;;;;;;;;;;;;;;5045814;28;1377;-74
2022/11/06 11:14:26;;;;;;;;;;;;;;;;;;5072720;28;1902;-74
2022/11/06 11:16:52;;;;;;;;;;;;;;;;;;5087043;28;1478;-75
2022/11/06 11:19:23;;;;;;;;;;;;;;;;;;5069224;28;1458;-74
2022/11/06 11:21:53;;;;;;;;;;;;;;;;;;5070363;28;1463;-73
2022/11/06 11:24:20;;;;;;;;;;;;;;;;;;5082008;28;1430;-73
2022/11/06 11:26:46;;;;;;;;;;;;;;;;;;5070641;28;1410;-74
2022/11/06 11:29:16;;;;;;;;;;;;;;;;;;5070961;28;1520;-74
2022/11/06 11:31:46;;;;;;;;;;;;;;;;;;5070894;28;1328;-74
2022/11/06 11:34:15;;;;;;;;;;;;;;;;;;5077957;28;1898;-74
2022/11/06 11:36:48;;;;;;;;;;;;;;;;;;5064060;28;1290;-74
2022/11/06 11:39:14;;;;;;;;;;;;;;;;;;5074036;28;973;-74
2022/11/06 11:41:40;;;;;;;;;;;;;;;;;;5070218;28;1430;-74
2022/11/06 11:44:13;;;;;;;;;;;;;;;;;;5055281;28;1188;-74
2022/11/06 11:46:45;;;;;;;;;;;;;;;;;;5073181;28;1391;-74
2022/11/06 11:49:13;;;;;;;;;;;;;;;;;;5071972;28;1448;-74
2022/11/06 11:51:40;;;;;;;;;;;;;;;;;;5054616;28;1214;-74
2022/11/06 11:54:07;;;;;;;;;;;;;;;;;;5070808;28;1910;-74
2022/11/06 11:56:33;;;;;;;;;;;;;;;;;;5072400;28;1455;-74
2022/11/06 11:59:00;;;;;;;;;;;;;;;;;;5075139;28;1384;-74
2022/11/06 12:01:34;;;;;;;;;;;;;;;;;;5073750;28;1391;-73
2022/11/06 12:04:00;;;;;;;;;;;;;;;;;;5059164;28;1121;-74
2022/11/06 12:06:27;;;;;;;;;;;;;;;;;;5056281;28;1378;-74
2022/11/06 12:08:54;;;;;;;;;;;;;;;;;;5034740;28;1229;-74
2022/11/06 12:11:20;;;;;;;;;;;;;;;;;;5061062;28;1397;-74
2022/11/06 12:13:52;;;;;;;;;;;;;;;;;;5071353;28;1450;-74
2022/11/06 12:16:18;;;;;;;;;;;;;;;;;;5052981;28;1973;-74
2022/11/06 12:18:45;;;;;;;;;;;;;;;;;;5052783;28;866;-74
2022/11/06 12:21:12;;;;;;;;;;;;;;;;;;5043380;28;1518;-72
2022/11/06 12:23:42;;;;;;;;;;;;;;;;;;5065647;28;1134;-73
2022/11/06 12:26:09;;;;;;;;;;;;;;;;;;5072917;28;1431;-74
2022/11/06 12:28:36;;;;;;;;;;;;;;;;;;5073730;28;1461;-74
2022/11/06 12:31:03;;;;;;;;;;;;;;;;;;5062611;28;1224;-74
2022/11/06 12:33:29;;;;;;;;;;;;;;;;;;5064504;28;1429;-76
2022/11/06 12:35:57;;;;;;;;;;;;;;;;;;5069660;28;1902;-74
2022/11/06 12:38:24;;;;;;;;;;;;;;;;;;5071617;28;1448;-75
2022/11/06 12:40:54;;;;;;;;;;;;;;;;;;5060644;28;1452;-75
2022/11/06 12:43:21;;;;;;;;;;;;;;;;;;5070019;28;1234;-75
2022/11/06 12:46:06;;;;;;;;;;;;;;;;;;5071848;28;1347;-74
2022/11/06 12:48:43;;;;;;;;;;;;;;;;;;5072276;28;980;-74
2022/11/06 12:51:11;;;;;;;;;;;;;;;;;;5072582;28;1059;-75
2022/11/06 12:53:40;;;;;;;;;;;;;;;;;;5053708;28;1270;-74
2022/11/06 12:56:10;;;;;;;;;;;;;;;;;;5053601;28;1918;-74
2022/11/06 12:58:42;;;;;;;;;;;;;;;;;;5072353;28;1027;-75
2022/11/06 13:01:10;;;;;;;;;;;;;;;;;;5072003;28;1099;-74
2022/11/06 13:03:43;;;;;;;;;;;;;;;;;;5053482;28;1247;-75
2022/11/06 13:06:11;;;;;;;;;;;;;;;;;;5053845;28;1303;-75
2022/11/06 13:08:39;;;;;;;;;;;;;;;;;;5071803;28;822;-75
2022/11/06 13:11:13;;;;;;;;;;;;;;;;;;5054101;28;1100;-74
2022/11/06 13:13:42;;;;;;;;;;;;;;;;;;5071206;28;610;-74
2022/11/06 13:16:10;;;;;;;;;;;;;;;;;;5071747;28;1914;-74
2022/11/06 13:18:38;;;;;;;;;;;;;;;;;;5053918;28;1203;-76
2022/11/06 13:21:06;;;;;;;;;;;;;;;;;;5071475;28;1440;-75
2022/11/06 13:23:33;;;;;;;;;;;;;;;;;;5070967;28;1210;-72
2022/11/06 13:26:01;;;;;;;;;;;;;;;;;;5071854;28;1379;-74
2022/11/06 13:28:33;;;;;;;;;;;;;;;;;;5072133;28;1063;-74
2022/11/06 13:30:59;;;;;;;;;;;;;;;;;;5071593;28;965;-74
2022/11/06 13:33:26;;;;;;;;;;;;;;;;;;5071153;28;837;-74
2022/11/06 13:35:52;;;;;;;;;;;;;;;;;;5071534;28;1981;-74
2022/11/06 13:38:21;;;;;;;;;;;;;;;;;;5071661;28;1075;-74
2022/11/06 13:40:48;;;;;;;;;;;;;;;;;;5072126;28;1067;-74
2022/11/06 13:43:15;;;;;;;;;;;;;;;;;;5071096;28;853;-74
2022/11/06 13:45:45;;;;;;;;;;;;;;;;;;5071788;28;1293;-74
2022/11/06 13:48:18;;;;;;;;;;;;;;;;;;5071799;28;1127;-74
2022/11/06 13:50:46;;;;;;;;;;;;;;;;;;5068258;28;1519;-73
2022/11/06 13:53:14;;;;;;;;;;;;;;;;;;5052607;28;1112;-74
2022/11/06 13:55:45;;;;;;;;;;;;;;;;;;5071587;28;1886;-74
2022/11/06 13:58:17;;;;;;;;;;;;;;;;;;5053177;28;1170;-75
2022/11/06 14:00:48;;;;;;;;;;;;;;;;;;5069768;28;906;-74
2022/11/06 14:03:32;;;;;;;;;;;;;;;;;;5049326;28;1578;-74
2022/11/06 14:05:59;;;;;;;;;;;;;;;;;;5068499;28;1396;-74
2022/11/06 14:08:27;;;;;;;;;;;;;;;;;;5069408;28;1378;-74
2022/11/06 14:10:54;;;;;;;;;;;;;;;;;;5060180;28;1118;-74
2022/11/06 14:13:23;;;;;;;;;;;;;;;;;;5051616;28;1214;-74
2022/11/06 14:15:51;;;;;;;;;;;;;;;;;;5037014;28;1915;-73
2022/11/06 14:18:21;;;;;;;;;;;;;;;;;;5008149;28;1823;-73
2022/11/06 14:20:47;;;;;;;;;;;;;;;;;;5016326;28;1212;-73
2022/11/06 14:23:32;;;;;;;;;;;;;;;;;;5022144;28;1260;-73
2022/11/06 14:25:59;;;;;;;;;;;;;;;;;;5002702;28;1337;-73
2022/11/06 14:28:29;;;;;;;;;;;;;;;;;;5003960;28;1459;-72
2022/11/06 14:30:57;;;;;;;;;;;;;;;;;;5001658;28;948;-73
2022/11/06 14:33:43;;;;;;;;;;;;;;;;;;4990598;28;857;-73
2022/11/06 14:36:13;;;;;;;;;;;;;;;;;;5000713;28;2028;-73
2022/11/06 14:38:41;;;;;;;;;;;;;;;;;;4993762;28;964;-73
2022/11/06 14:41:22;;;;;;;;;;;;;;;;;;5005378;28;1134;-74
2022/11/06 14:43:49;;;;;;;;;;;;;;;;;;4986113;28;1064;-73
2022/11/06 14:46:18;;;;;;;;;;;;;;;;;;4999058;28;1412;-74
2022/11/06 14:48:45;;;;;;;;;;;;;;;;;;4998517;28;1009;-74
2022/11/06 14:51:12;;;;;;;;;;;;;;;;;;5008849;28;798;-73
2022/11/06 14:53:39;;;;;;;;;;;;;;;;;;5004856;28;1065;-75
2022/11/06 14:56:07;;;;;;;;;;;;;;;;;;5019875;28;2005;-74
2022/11/06 14:58:34;;;;;;;;;;;;;;;;;;5006638;28;1141;-75
2022/11/06 15:01:01;;;;;;;;;;;;;;;;;;5000612;28;908;-74
2022/11/06 15:03:30;;;;;;;;;;;;;;;;;;5006710;28;1003;-76
2022/11/06 15:05:59;;;;;;;;;;;;;;;;;;4979394;28;1433;-74
2022/11/06 15:08:41;;;;;;;;;;;;;;;;;;4986593;28;990;-74
2022/11/06 15:11:08;;;;;;;;;;;;;;;;;;5019538;28;1895;-75
2022/11/06 15:13:34;;;;;;;;;;;;;;;;;;5024323;28;1635;-74
2022/11/06 15:16:03;;;;;;;;;;;;;;;;;;5007647;28;2017;-75
2022/11/06 15:18:32;;;;;;;;;;;;;;;;;;5005610;28;996;-73
2022/11/06 15:21:00;;;;;;;;;;;;;;;;;;5005818;28;885;-73
2022/11/06 15:23:27;;;;;;;;;;;;;;;;;;5002200;28;1050;-72
2022/11/06 15:26:04;;;;;;;;;;;;;;;;;;5002101;28;1337;-74
2022/11/06 15:28:32;;;;;;;;;;;;;;;;;;4987577;28;1025;-73
2022/11/06 15:30:59;;;;;;;;;;;;;;;;;;5015451;28;1572;-73
2022/11/06 15:33:27;;;;;;;;;;;;;;;;;;5011982;28;1364;-73
2022/11/06 15:35:57;;;;;;;;;;;;;;;;;;4998645;28;2004;-73
2022/11/06 15:38:23;;;;;;;;;;;;;;;;;;5005508;28;946;-72
2022/11/06 15:40:51;;;;;;;;;;;;;;;;;;4995491;28;1651;-73
2022/11/06 15:43:22;;;;;;;;;;;;;;;;;;5005742;28;1112;-73
2022/11/06 15:46:01;;;;;;;;;;;;;;;;;;5007496;28;1356;-73
2022/11/06 15:48:28;;;;;;;;;;;;;;;;;;4990414;28;1210;-73
2022/11/06 15:50:56;;;;;;;;;;;;;;;;;;5008630;28;877;-73
2022/11/06 15:53:23;;;;;;;;;;;;;;;;;;5003229;28;830;-73
2022/11/06 15:55:51;;;;;;;;;;;;;;;;;;4985512;28;2001;-73
2022/11/06 15:58:23;;;;;;;;;;;;;;;;;;5002271;28;921;-73
2022/11/06 16:00:50;;;;;;;;;;;;;;;;;;5005004;28;783;-73
2022/11/06 16:03:17;;;;;;;;;;;;;;;;;;4988936;28;1124;-74
2022/11/06 16:05:44;;;;;;;;;;;;;;;;;;5007962;28;1388;-74
2022/11/06 16:08:11;;;;;;;;;;;;;;;;;;5008174;28;1100;-74
2022/11/06 16:10:38;;;;;;;;;;;;;;;;;;5000502;28;1328;-74
2022/11/06 16:13:05;;;;;;;;;;;;;;;;;;4996765;28;1394;-73
2022/11/06 16:15:49;;;;;;;;;;;;;;;;;;4987186;28;1992;-72
2022/11/06 16:18:17;;;;;;;;;;;;;;;;;;4998649;28;886;-73
2022/11/06 16:20:43;;;;;;;;;;;;;;;;;;5003858;28;880;-72
2022/11/06 16:23:12;;;;;;;;;;;;;;;;;;5006628;28;989;-72
2022/11/06 16:25:38;;;;;;;;;;;;;;;;;;4996073;28;1350;-72
2022/11/06 16:28:05;;;;;;;;;;;;;;;;;;5004613;28;901;-73
2022/11/06 16:30:32;;;;;;;;;;;;;;;;;;4997346;28;878;-73
2022/11/06 16:32:59;;;;;;;;;;;;;;;;;;5010512;28;807;-72
2022/11/06 16:35:32;;;;;;;;;;;;;;;;;;5000558;28;1995;-73
2022/11/06 16:38:02;;;;;;;;;;;;;;;;;;5000041;28;869;-73
2022/11/06 16:40:50;;;;;;;;;;;;;;;;;;4996918;28;1008;-74
2022/11/06 16:43:16;;;;;;;;;;;;;;;;;;5000215;28;995;-73
2022/11/06 16:45:53;;;;;;;;;;;;;;;;;;5020370;28;1377;-74
2022/11/06 16:48:30;;;;;;;;;;;;;;;;;;5000201;28;1276;-73
2022/11/06 16:50:58;;;;;;;;;;;;;;;;;;4995502;28;964;-73
2022/11/06 16:53:25;;;;;;;;;;;;;;;;;;4995952;28;732;-73
2022/11/06 16:55:56;;;;;;;;;;;;;;;;;;5000776;28;1991;-73
2022/11/06 16:58:23;;;;;;;;;;;;;;;;;;5008355;28;982;-74
2022/11/06 17:00:55;;;;;;;;;;;;;;;;;;5004471;28;738;-73
2022/11/06 17:03:21;;;;;;;;;;;;;;;;;;5001361;28;857;-75
2022/11/06 17:05:50;;;;;;;;;;;;;;;;;;4979216;28;1388;-74
2022/11/06 17:08:21;;;;;;;;;;;;;;;;;;4996903;28;1368;-74
2022/11/06 17:10:47;;;;;;;;;;;;;;;;;;4992376;28;1435;-75
2022/11/06 17:13:19;;;;;;;;;;;;;;;;;;4987106;28;1640;-74
2022/11/06 17:15:47;;;;;;;;;;;;;;;;;;5036006;22;4096;-79
2022/11/06 17:18:14;;;;;;;;;;;;;;;;;;5010386;28;1309;-78
2022/11/06 17:20:42;;;;;;;;;;;;;;;;;;5018198;28;1486;-79